sensor_id;sensor_type;location;lat;lon;timestamp;P1;durP1;ratioP1;P2;durP2;ratioP2
58697;SDS011;44475;53.206;-6.106;2023-03-20T00:03:48;15.50;;;2.50;;
58697;SDS011;44475;53.206;-6.106;2023-03-20T00:06:16;11.32;;;2.50;;
58697;SDS011;44475;53.206;-6.106;2023-03-20T00:08:45;9.32;;;2.38;;
58697;SDS011;44475;53.206;-6.106;2023-03-20T00:13:59;14.73;;;2.40;;
58697;SDS011;44475;53.206;-6.106;2023-03-20T00:16:33;8.55;;;2.30;;
58697;SDS011;44475;53.206;-6.106;2023-03-20T00:19:01;13.50;;;2.45;;
58697;SDS011;44475;53.206;-6.106;2023-03-20T00:21:29;15.60;;;2.65;;
58697;SDS011;44475;53.206;-6.106;2023-03-20T00:23:59;12.25;;;2.50;;
58697;SDS011;44475;53.206;-6.106;2023-03-20T00:26:27;8.88;;;2.10;;
58697;SDS011;44475;53.206;-6.106;2023-03-20T00:28:58;9.13;;;2.10;;
58697;SDS011;44475;53.206;-6.106;2023-03-20T00:31:26;7.82;;;2.08;;
58697;SDS011;44475;53.206;-6.106;2023-03-20T00:36:26;7.82;;;2.42;;
58697;SDS011;44475;53.206;-6.106;2023-03-20T00:38:53;6.80;;;2.00;;
58697;SDS011;44475;53.206;-6.106;2023-03-20T00:47:08;5.72;;;2.00;;
58697;SDS011;44475;53.206;-6.106;2023-03-20T00:49:48;6.97;;;2.30;;
58697;SDS011;44475;53.206;-6.106;2023-03-20T00:52:17;7.05;;;1.95;;
58697;SDS011;44475;53.206;-6.106;2023-03-20T00:54:44;5.15;;;1.90;;
58697;SDS011;44475;53.206;-6.106;2023-03-20T00:57:13;4.03;;;2.00;;
58697;SDS011;44475;53.206;-6.106;2023-03-20T01:00:10;7.05;;;1.98;;
58697;SDS011;44475;53.206;-6.106;2023-03-20T01:02:45;8.68;;;1.92;;
58697;SDS011;44475;53.206;-6.106;2023-03-20T01:05:12;4.15;;;1.92;;
58697;SDS011;44475;53.206;-6.106;2023-03-20T01:07:38;6.15;;;1.83;;
58697;SDS011;44475;53.206;-6.106;2023-03-20T01:10:06;6.38;;;1.80;;
58697;SDS011;44475;53.206;-6.106;2023-03-20T01:12:37;8.48;;;2.00;;
58697;SDS011;44475;53.206;-6.106;2023-03-20T01:15:19;4.88;;;1.83;;
58697;SDS011;44475;53.206;-6.106;2023-03-20T01:17:49;5.47;;;1.80;;
58697;SDS011;44475;53.206;-6.106;2023-03-20T01:20:27;5.60;;;1.88;;
58697;SDS011;44475;53.206;-6.106;2023-03-20T01:22:55;4.07;;;1.60;;
58697;SDS011;44475;53.206;-6.106;2023-03-20T01:25:25;4.55;;;1.80;;
58697;SDS011;44475;53.206;-6.106;2023-03-20T01:27:52;3.05;;;1.80;;
58697;SDS011;44475;53.206;-6.106;2023-03-20T01:30:21;4.30;;;1.80;;
58697;SDS011;44475;53.206;-6.106;2023-03-20T01:32:55;4.70;;;2.10;;
58697;SDS011;44475;53.206;-6.106;2023-03-20T01:35:26;5.75;;;1.85;;
58697;SDS011;44475;53.206;-6.106;2023-03-20T01:43:23;5.07;;;1.80;;
58697;SDS011;44475;53.206;-6.106;2023-03-20T01:46:14;6.63;;;1.80;;
58697;SDS011;44475;53.206;-6.106;2023-03-20T01:51:19;4.53;;;1.85;;
58697;SDS011;44475;53.206;-6.106;2023-03-20T01:53:48;4.25;;;1.70;;
58697;SDS011;44475;53.206;-6.106;2023-03-20T01:56:22;2.65;;;1.55;;
58697;SDS011;44475;53.206;-6.106;2023-03-20T01:58:55;4.20;;;1.70;;
58697;SDS011;44475;53.206;-6.106;2023-03-20T02:01:29;3.33;;;1.50;;
58697;SDS011;44475;53.206;-6.106;2023-03-20T02:03:58;2.95;;;1.70;;
58697;SDS011;44475;53.206;-6.106;2023-03-20T02:06:37;3.22;;;1.70;;
58697;SDS011;44475;53.206;-6.106;2023-03-20T02:09:12;4.72;;;1.80;;
58697;SDS011;44475;53.206;-6.106;2023-03-20T02:11:42;5.22;;;1.50;;
58697;SDS011;44475;53.206;-6.106;2023-03-20T02:14:10;2.97;;;1.52;;
58697;SDS011;44475;53.206;-6.106;2023-03-20T02:16:52;3.45;;;1.55;;
58697;SDS011;44475;53.206;-6.106;2023-03-20T02:19:49;3.05;;;1.40;;
58697;SDS011;44475;53.206;-6.106;2023-03-20T02:45:56;2.63;;;1.45;;
58697;SDS011;44475;53.206;-6.106;2023-03-20T02:48:46;2.40;;;1.38;;
58697;SDS011;44475;53.206;-6.106;2023-03-20T02:57:17;5.15;;;1.33;;
58697;SDS011;44475;53.206;-6.106;2023-03-20T03:00:09;1.85;;;1.33;;
58697;SDS011;44475;53.206;-6.106;2023-03-20T03:02:41;2.47;;;1.50;;
58697;SDS011;44475;53.206;-6.106;2023-03-20T03:05:19;2.25;;;1.40;;
58697;SDS011;44475;53.206;-6.106;2023-03-20T03:07:49;4.10;;;1.58;;
58697;SDS011;44475;53.206;-6.106;2023-03-20T03:10:28;2.35;;;1.40;;
58697;SDS011;44475;53.206;-6.106;2023-03-20T03:12:59;1.30;;;1.20;;
58697;SDS011;44475;53.206;-6.106;2023-03-20T03:15:43;1.90;;;1.30;;
58697;SDS011;44475;53.206;-6.106;2023-03-20T03:18:14;2.38;;;1.50;;
58697;SDS011;44475;53.206;-6.106;2023-03-20T03:20:44;2.88;;;1.70;;
58697;SDS011;44475;53.206;-6.106;2023-03-20T03:23:17;2.00;;;1.30;;
58697;SDS011;44475;53.206;-6.106;2023-03-20T03:25:52;2.15;;;1.38;;
58697;SDS011;44475;53.206;-6.106;2023-03-20T03:28:24;1.95;;;1.50;;
58697;SDS011;44475;53.206;-6.106;2023-03-20T03:31:05;1.80;;;1.45;;
58697;SDS011;44475;53.206;-6.106;2023-03-20T03:33:35;1.70;;;1.20;;
58697;SDS011;44475;53.206;-6.106;2023-03-20T03:39:05;2.45;;;1.42;;
58697;SDS011;44475;53.206;-6.106;2023-03-20T03:44:45;2.13;;;1.40;;
58697;SDS011;44475;53.206;-6.106;2023-03-20T03:47:26;1.35;;;1.25;;
58697;SDS011;44475;53.206;-6.106;2023-03-20T03:50:05;2.72;;;1.35;;
58697;SDS011;44475;53.206;-6.106;2023-03-20T03:52:49;2.30;;;1.38;;
58697;SDS011;44475;53.206;-6.106;2023-03-20T03:55:20;2.73;;;1.50;;
58697;SDS011;44475;53.206;-6.106;2023-03-20T04:01:05;1.92;;;1.30;;
58697;SDS011;44475;53.206;-6.106;2023-03-20T04:03:40;1.58;;;1.20;;
58697;SDS011;44475;53.206;-6.106;2023-03-20T04:06:13;2.33;;;1.30;;
58697;SDS011;44475;53.206;-6.106;2023-03-20T04:08:42;1.73;;;1.38;;
58697;SDS011;44475;53.206;-6.106;2023-03-20T04:11:19;2.47;;;1.52;;
58697;SDS011;44475;53.206;-6.106;2023-03-20T04:13:49;1.77;;;1.40;;
58697;SDS011;44475;53.206;-6.106;2023-03-20T04:16:17;2.00;;;1.30;;
58697;SDS011;44475;53.206;-6.106;2023-03-20T04:19:15;1.90;;;1.40;;
58697;SDS011;44475;53.206;-6.106;2023-03-20T04:21:43;2.45;;;1.33;;
58697;SDS011;44475;53.206;-6.106;2023-03-20T04:24:10;2.67;;;1.40;;
58697;SDS011;44475;53.206;-6.106;2023-03-20T04:26:37;2.35;;;1.30;;
58697;SDS011;44475;53.206;-6.106;2023-03-20T04:29:04;2.72;;;1.45;;
58697;SDS011;44475;53.206;-6.106;2023-03-20T04:34:28;1.85;;;1.30;;
58697;SDS011;44475;53.206;-6.106;2023-03-20T04:37:27;4.22;;;1.50;;
58697;SDS011;44475;53.206;-6.106;2023-03-20T04:40:02;2.33;;;1.30;;
58697;SDS011;44475;53.206;-6.106;2023-03-20T04:42:35;1.33;;;1.23;;
58697;SDS011;44475;53.206;-6.106;2023-03-20T04:45:04;2.55;;;1.30;;
58697;SDS011;44475;53.206;-6.106;2023-03-20T04:47:34;2.70;;;1.35;;
58697;SDS011;44475;53.206;-6.106;2023-03-20T04:50:00;2.40;;;1.38;;
58697;SDS011;44475;53.206;-6.106;2023-03-20T04:52:28;2.08;;;1.30;;
58697;SDS011;44475;53.206;-6.106;2023-03-20T04:54:55;2.05;;;1.38;;
58697;SDS011;44475;53.206;-6.106;2023-03-20T04:57:25;3.65;;;1.35;;
58697;SDS011;44475;53.206;-6.106;2023-03-20T04:59:56;1.27;;;1.17;;
58697;SDS011;44475;53.206;-6.106;2023-03-20T05:02:23;1.85;;;1.35;;
58697;SDS011;44475;53.206;-6.106;2023-03-20T05:04:51;1.98;;;1.40;;
58697;SDS011;44475;53.206;-6.106;2023-03-20T05:07:21;1.95;;;1.20;;
58697;SDS011;44475;53.206;-6.106;2023-03-20T05:09:53;2.10;;;1.30;;
58697;SDS011;44475;53.206;-6.106;2023-03-20T05:12:21;3.22;;;1.40;;
58697;SDS011;44475;53.206;-6.106;2023-03-20T05:15:08;1.52;;;1.30;;
58697;SDS011;44475;53.206;-6.106;2023-03-20T05:17:54;1.88;;;1.40;;
58697;SDS011;44475;53.206;-6.106;2023-03-20T05:20:43;3.50;;;1.35;;
58697;SDS011;44475;53.206;-6.106;2023-03-20T05:23:39;1.95;;;1.30;;
58697;SDS011;44475;53.206;-6.106;2023-03-20T05:26:39;1.40;;;1.30;;
58697;SDS011;44475;53.206;-6.106;2023-03-20T05:29:07;2.38;;;1.30;;
58697;SDS011;44475;53.206;-6.106;2023-03-20T05:31:57;2.13;;;1.00;;
58697;SDS011;44475;53.206;-6.106;2023-03-20T05:34:33;2.17;;;1.38;;
58697;SDS011;44475;53.206;-6.106;2023-03-20T05:37:20;1.48;;;1.30;;
58697;SDS011;44475;53.206;-6.106;2023-03-20T05:39:55;1.20;;;1.10;;
58697;SDS011;44475;53.206;-6.106;2023-03-20T05:42:34;2.03;;;1.27;;
58697;SDS011;44475;53.206;-6.106;2023-03-20T05:45:18;1.40;;;1.30;;
58697;SDS011;44475;53.206;-6.106;2023-03-20T05:50:51;1.75;;;1.10;;
58697;SDS011;44475;53.206;-6.106;2023-03-20T05:53:38;1.80;;;1.42;;
58697;SDS011;44475;53.206;-6.106;2023-03-20T05:56:24;1.20;;;1.10;;
58697;SDS011;44475;53.206;-6.106;2023-03-20T05:59:17;1.50;;;1.10;;
58697;SDS011;44475;53.206;-6.106;2023-03-20T06:01:59;1.45;;;1.10;;
58697;SDS011;44475;53.206;-6.106;2023-03-20T06:04:29;2.90;;;1.05;;
58697;SDS011;44475;53.206;-6.106;2023-03-20T06:10:00;1.20;;;1.10;;
58697;SDS011;44475;53.206;-6.106;2023-03-20T06:12:28;3.15;;;1.17;;
58697;SDS011;44475;53.206;-6.106;2023-03-20T06:14:54;2.50;;;1.30;;
58697;SDS011;44475;53.206;-6.106;2023-03-20T06:17:21;1.90;;;1.20;;
58697;SDS011;44475;53.206;-6.106;2023-03-20T06:19:52;1.52;;;1.10;;
58697;SDS011;44475;53.206;-6.106;2023-03-20T06:22:23;1.30;;;1.20;;
58697;SDS011;44475;53.206;-6.106;2023-03-20T06:24:50;1.60;;;1.17;;
58697;SDS011;44475;53.206;-6.106;2023-03-20T06:27:17;1.60;;;1.05;;
58697;SDS011;44475;53.206;-6.106;2023-03-20T06:29:46;2.95;;;1.15;;
58697;SDS011;44475;53.206;-6.106;2023-03-20T06:32:16;1.25;;;1.15;;
58697;SDS011;44475;53.206;-6.106;2023-03-20T06:34:45;1.25;;;1.15;;
58697;SDS011;44475;53.206;-6.106;2023-03-20T06:37:12;2.15;;;1.20;;
58697;SDS011;44475;53.206;-6.106;2023-03-20T06:39:38;1.17;;;1.08;;
58697;SDS011;44475;53.206;-6.106;2023-03-20T06:42:09;2.15;;;1.02;;
58697;SDS011;44475;53.206;-6.106;2023-03-20T06:44:38;1.17;;;1.08;;
58697;SDS011;44475;53.206;-6.106;2023-03-20T06:47:24;1.20;;;1.10;;
58697;SDS011;44475;53.206;-6.106;2023-03-20T06:49:51;1.30;;;1.20;;
58697;SDS011;44475;53.206;-6.106;2023-03-20T06:52:20;1.55;;;1.05;;
58697;SDS011;44475;53.206;-6.106;2023-03-20T06:54:56;1.92;;;1.42;;
58697;SDS011;44475;53.206;-6.106;2023-03-20T06:57:23;1.02;;;1.02;;
58697;SDS011;44475;53.206;-6.106;2023-03-20T06:59:50;1.27;;;1.20;;
58697;SDS011;44475;53.206;-6.106;2023-03-20T07:02:16;1.23;;;1.13;;
58697;SDS011;44475;53.206;-6.106;2023-03-20T07:04:43;1.30;;;1.20;;
58697;SDS011;44475;53.206;-6.106;2023-03-20T07:07:10;1.00;;;1.00;;
58697;SDS011;44475;53.206;-6.106;2023-03-20T07:09:36;1.40;;;1.10;;
58697;SDS011;44475;53.206;-6.106;2023-03-20T07:12:04;1.15;;;1.05;;
58697;SDS011;44475;53.206;-6.106;2023-03-20T07:14:34;3.65;;;1.30;;
58697;SDS011;44475;53.206;-6.106;2023-03-20T07:17:03;1.48;;;1.10;;
58697;SDS011;44475;53.206;-6.106;2023-03-20T07:19:31;1.20;;;1.10;;
58697;SDS011;44475;53.206;-6.106;2023-03-20T07:21:59;1.85;;;1.27;;
58697;SDS011;44475;53.206;-6.106;2023-03-20T07:24:30;3.67;;;1.25;;
58697;SDS011;44475;53.206;-6.106;2023-03-20T07:26:58;1.30;;;1.13;;
58697;SDS011;44475;53.206;-6.106;2023-03-20T07:29:25;2.50;;;1.20;;
58697;SDS011;44475;53.206;-6.106;2023-03-20T07:31:56;1.60;;;1.15;;
58697;SDS011;44475;53.206;-6.106;2023-03-20T07:34:28;2.53;;;1.30;;
58697;SDS011;44475;53.206;-6.106;2023-03-20T07:36:55;3.13;;;1.30;;
58697;SDS011;44475;53.206;-6.106;2023-03-20T07:39:22;2.60;;;1.20;;
58697;SDS011;44475;53.206;-6.106;2023-03-20T07:42:11;2.05;;;1.20;;
58697;SDS011;44475;53.206;-6.106;2023-03-20T07:44:47;3.72;;;1.40;;
58697;SDS011;44475;53.206;-6.106;2023-03-20T07:47:14;4.32;;;1.30;;
58697;SDS011;44475;53.206;-6.106;2023-03-20T07:49:40;4.07;;;1.30;;
58697;SDS011;44475;53.206;-6.106;2023-03-20T07:52:07;2.83;;;1.35;;
58697;SDS011;44475;53.206;-6.106;2023-03-20T07:54:33;2.38;;;1.27;;
58697;SDS011;44475;53.206;-6.106;2023-03-20T07:57:00;1.95;;;1.48;;
58697;SDS011;44475;53.206;-6.106;2023-03-20T07:59:29;3.65;;;1.38;;
58697;SDS011;44475;53.206;-6.106;2023-03-20T08:01:56;2.10;;;1.38;;
58697;SDS011;44475;53.206;-6.106;2023-03-20T08:04:25;2.67;;;1.40;;
58697;SDS011;44475;53.206;-6.106;2023-03-20T08:06:52;1.98;;;1.60;;
58697;SDS011;44475;53.206;-6.106;2023-03-20T08:09:18;5.38;;;1.60;;
58697;SDS011;44475;53.206;-6.106;2023-03-20T08:11:45;2.38;;;1.50;;
58697;SDS011;44475;53.206;-6.106;2023-03-20T08:14:11;4.38;;;1.60;;
58697;SDS011;44475;53.206;-6.106;2023-03-20T08:16:38;1.77;;;1.45;;
58697;SDS011;44475;53.206;-6.106;2023-03-20T08:19:04;2.88;;;1.50;;
58697;SDS011;44475;53.206;-6.106;2023-03-20T08:21:31;2.10;;;1.50;;
58697;SDS011;44475;53.206;-6.106;2023-03-20T08:24:01;2.17;;;1.40;;
58697;SDS011;44475;53.206;-6.106;2023-03-20T08:26:27;2.95;;;1.60;;
58697;SDS011;44475;53.206;-6.106;2023-03-20T08:28:53;2.92;;;1.55;;
58697;SDS011;44475;53.206;-6.106;2023-03-20T08:31:20;1.33;;;1.23;;
58697;SDS011;44475;53.206;-6.106;2023-03-20T08:33:47;1.40;;;1.30;;
58697;SDS011;44475;53.206;-6.106;2023-03-20T08:36:14;4.07;;;1.58;;
58697;SDS011;44475;53.206;-6.106;2023-03-20T08:38:43;2.78;;;1.50;;
58697;SDS011;44475;53.206;-6.106;2023-03-20T08:41:13;4.82;;;1.48;;
58697;SDS011;44475;53.206;-6.106;2023-03-20T08:43:40;4.43;;;1.48;;
58697;SDS011;44475;53.206;-6.106;2023-03-20T08:46:07;2.75;;;1.50;;
58697;SDS011;44475;53.206;-6.106;2023-03-20T08:48:33;8.57;;;1.50;;
58697;SDS011;44475;53.206;-6.106;2023-03-20T08:51:00;3.55;;;1.50;;
58697;SDS011;44475;53.206;-6.106;2023-03-20T08:53:27;1.95;;;1.45;;
58697;SDS011;44475;53.206;-6.106;2023-03-20T08:55:53;3.13;;;1.55;;
58697;SDS011;44475;53.206;-6.106;2023-03-20T08:58:20;5.72;;;1.85;;
58697;SDS011;44475;53.206;-6.106;2023-03-20T09:00:47;3.63;;;1.33;;
58697;SDS011;44475;53.206;-6.106;2023-03-20T09:03:14;2.00;;;1.52;;
58697;SDS011;44475;53.206;-6.106;2023-03-20T09:05:44;1.88;;;1.35;;
58697;SDS011;44475;53.206;-6.106;2023-03-20T09:08:11;1.63;;;1.38;;
58697;SDS011;44475;53.206;-6.106;2023-03-20T09:10:38;2.05;;;1.50;;
58697;SDS011;44475;53.206;-6.106;2023-03-20T09:13:05;2.22;;;1.63;;
58697;SDS011;44475;53.206;-6.106;2023-03-20T09:15:33;1.80;;;1.38;;
58697;SDS011;44475;53.206;-6.106;2023-03-20T09:18:00;2.70;;;1.50;;
58697;SDS011;44475;53.206;-6.106;2023-03-20T09:20:26;2.92;;;1.33;;
58697;SDS011;44475;53.206;-6.106;2023-03-20T09:22:53;3.40;;;1.48;;
58697;SDS011;44475;53.206;-6.106;2023-03-20T09:25:23;4.18;;;1.67;;
58697;SDS011;44475;53.206;-6.106;2023-03-20T09:27:50;6.25;;;1.52;;
58697;SDS011;44475;53.206;-6.106;2023-03-20T09:30:19;4.75;;;1.77;;
58697;SDS011;44475;53.206;-6.106;2023-03-20T09:32:47;4.28;;;1.75;;
58697;SDS011;44475;53.206;-6.106;2023-03-20T09:35:15;5.75;;;1.70;;
58697;SDS011;44475;53.206;-6.106;2023-03-20T09:37:42;5.82;;;1.50;;
58697;SDS011;44475;53.206;-6.106;2023-03-20T09:40:12;2.90;;;1.50;;
58697;SDS011;44475;53.206;-6.106;2023-03-20T09:42:59;3.80;;;1.42;;
58697;SDS011;44475;53.206;-6.106;2023-03-20T09:53:48;2.22;;;1.38;;
58697;SDS011;44475;53.206;-6.106;2023-03-20T09:56:22;1.63;;;1.20;;
58697;SDS011;44475;53.206;-6.106;2023-03-20T09:58:55;2.60;;;1.40;;
58697;SDS011;44475;53.206;-6.106;2023-03-20T10:01:25;2.90;;;1.40;;
58697;SDS011;44475;53.206;-6.106;2023-03-20T10:04:09;1.55;;;1.30;;
58697;SDS011;44475;53.206;-6.106;2023-03-20T10:06:36;3.67;;;1.40;;
58697;SDS011;44475;53.206;-6.106;2023-03-20T10:09:16;4.25;;;1.30;;
58697;SDS011;44475;53.206;-6.106;2023-03-20T10:15:02;1.90;;;1.23;;
58697;SDS011;44475;53.206;-6.106;2023-03-20T10:20:34;2.25;;;1.30;;
58697;SDS011;44475;53.206;-6.106;2023-03-20T10:23:17;4.13;;;1.30;;
58697;SDS011;44475;53.206;-6.106;2023-03-20T10:25:53;1.40;;;1.30;;
58697;SDS011;44475;53.206;-6.106;2023-03-20T10:28:27;3.05;;;1.30;;
58697;SDS011;44475;53.206;-6.106;2023-03-20T10:34:01;2.72;;;1.30;;
58697;SDS011;44475;53.206;-6.106;2023-03-20T10:36:59;3.53;;;1.50;;
58697;SDS011;44475;53.206;-6.106;2023-03-20T10:42:29;2.15;;;1.33;;
58697;SDS011;44475;53.206;-6.106;2023-03-20T10:45:02;1.85;;;1.10;;
58697;SDS011;44475;53.206;-6.106;2023-03-20T10:47:51;2.50;;;1.13;;
58697;SDS011;44475;53.206;-6.106;2023-03-20T10:50:22;1.67;;;1.27;;
58697;SDS011;44475;53.206;-6.106;2023-03-20T10:52:53;2.28;;;1.20;;
58697;SDS011;44475;53.206;-6.106;2023-03-20T10:55:26;4.13;;;1.30;;
58697;SDS011;44475;53.206;-6.106;2023-03-20T10:58:18;3.35;;;1.10;;
58697;SDS011;44475;53.206;-6.106;2023-03-20T11:00:49;1.88;;;1.20;;
58697;SDS011;44475;53.206;-6.106;2023-03-20T11:03:19;5.03;;;1.30;;
58697;SDS011;44475;53.206;-6.106;2023-03-20T11:05:56;2.78;;;1.30;;
58697;SDS011;44475;53.206;-6.106;2023-03-20T11:08:30;1.45;;;1.15;;
58697;SDS011;44475;53.206;-6.106;2023-03-20T11:11:01;2.20;;;1.38;;
58697;SDS011;44475;53.206;-6.106;2023-03-20T11:13:38;2.25;;;1.27;;
58697;SDS011;44475;53.206;-6.106;2023-03-20T11:18:55;1.83;;;1.27;;
58697;SDS011;44475;53.206;-6.106;2023-03-20T11:21:36;3.53;;;1.20;;
58697;SDS011;44475;53.206;-6.106;2023-03-20T11:27:06;2.28;;;1.20;;
58697;SDS011;44475;53.206;-6.106;2023-03-20T11:29:35;2.90;;;1.10;;
58697;SDS011;44475;53.206;-6.106;2023-03-20T11:38:05;1.33;;;1.20;;
58697;SDS011;44475;53.206;-6.106;2023-03-20T11:40:45;1.65;;;1.20;;
58697;SDS011;44475;53.206;-6.106;2023-03-20T11:43:14;2.42;;;1.30;;
58697;SDS011;44475;53.206;-6.106;2023-03-20T11:45:55;1.75;;;1.30;;
58697;SDS011;44475;53.206;-6.106;2023-03-20T11:48:44;2.17;;;1.30;;
58697;SDS011;44475;53.206;-6.106;2023-03-20T11:51:14;1.10;;;1.10;;
58697;SDS011;44475;53.206;-6.106;2023-03-20T11:58:59;1.48;;;1.10;;
58697;SDS011;44475;53.206;-6.106;2023-03-20T12:01:43;2.53;;;1.20;;
58697;SDS011;44475;53.206;-6.106;2023-03-20T12:07:02;1.55;;;1.20;;
58697;SDS011;44475;53.206;-6.106;2023-03-20T12:12:27;3.35;;;1.35;;
58697;SDS011;44475;53.206;-6.106;2023-03-20T12:17:41;2.03;;;1.20;;
58697;SDS011;44475;53.206;-6.106;2023-03-20T12:23:01;1.90;;;1.17;;
58697;SDS011;44475;53.206;-6.106;2023-03-20T12:28:42;2.13;;;1.30;;
58697;SDS011;44475;53.206;-6.106;2023-03-20T12:31:28;1.92;;;1.20;;
58697;SDS011;44475;53.206;-6.106;2023-03-20T12:36:43;1.17;;;1.02;;
58697;SDS011;44475;53.206;-6.106;2023-03-20T12:39:18;2.75;;;1.30;;
58697;SDS011;44475;53.206;-6.106;2023-03-20T12:50:40;6.25;;;1.35;;
58697;SDS011;44475;53.206;-6.106;2023-03-20T12:56:00;15.30;;;1.70;;
58697;SDS011;44475;53.206;-6.106;2023-03-20T13:06:39;21.48;;;2.03;;
58697;SDS011;44475;53.206;-6.106;2023-03-20T13:18:34;20.75;;;2.25;;
58697;SDS011;44475;53.206;-6.106;2023-03-20T13:21:30;19.10;;;2.20;;
58697;SDS011;44475;53.206;-6.106;2023-03-20T13:38:29;15.50;;;2.20;;
58697;SDS011;44475;53.206;-6.106;2023-03-20T13:41:05;12.95;;;2.13;;
58697;SDS011;44475;53.206;-6.106;2023-03-20T13:46:05;16.27;;;2.78;;
58697;SDS011;44475;53.206;-6.106;2023-03-20T13:48:53;19.40;;;2.83;;
58697;SDS011;44475;53.206;-6.106;2023-03-20T13:51:30;17.30;;;2.60;;
58697;SDS011;44475;53.206;-6.106;2023-03-20T14:02:11;40.05;;;3.95;;
58697;SDS011;44475;53.206;-6.106;2023-03-20T14:05:11;35.20;;;3.67;;
58697;SDS011;44475;53.206;-6.106;2023-03-20T14:07:45;38.80;;;4.53;;
58697;SDS011;44475;53.206;-6.106;2023-03-20T14:13:10;30.55;;;3.40;;
58697;SDS011;44475;53.206;-6.106;2023-03-20T14:15:54;50.67;;;4.15;;
58697;SDS011;44475;53.206;-6.106;2023-03-20T14:18:23;50.67;;;4.47;;
58697;SDS011;44475;53.206;-6.106;2023-03-20T14:20:51;61.13;;;3.95;;
58697;SDS011;44475;53.206;-6.106;2023-03-20T14:23:27;34.45;;;4.10;;
58697;SDS011;44475;53.206;-6.106;2023-03-20T14:31:38;56.53;;;5.47;;
58697;SDS011;44475;53.206;-6.106;2023-03-20T14:39:50;38.88;;;4.70;;
58697;SDS011;44475;53.206;-6.106;2023-03-20T14:45:53;35.20;;;3.85;;
58697;SDS011;44475;53.206;-6.106;2023-03-20T14:48:33;29.88;;;3.38;;
58697;SDS011;44475;53.206;-6.106;2023-03-20T14:53:55;28.67;;;4.07;;
58697;SDS011;44475;53.206;-6.106;2023-03-20T14:56:32;41.15;;;4.47;;
58697;SDS011;44475;53.206;-6.106;2023-03-20T15:06:49;30.83;;;3.83;;
58697;SDS011;44475;53.206;-6.106;2023-03-20T15:09:20;26.40;;;3.33;;
58697;SDS011;44475;53.206;-6.106;2023-03-20T15:11:49;37.67;;;5.53;;
58697;SDS011;44475;53.206;-6.106;2023-03-20T15:14:24;31.50;;;3.50;;
58697;SDS011;44475;53.206;-6.106;2023-03-20T15:16:57;31.42;;;3.35;;
58697;SDS011;44475;53.206;-6.106;2023-03-20T15:19:26;43.63;;;4.15;;
58697;SDS011;44475;53.206;-6.106;2023-03-20T15:21:53;32.17;;;3.85;;
58697;SDS011;44475;53.206;-6.106;2023-03-20T15:24:25;34.47;;;4.60;;
58697;SDS011;44475;53.206;-6.106;2023-03-20T15:26:53;46.90;;;3.97;;
58697;SDS011;44475;53.206;-6.106;2023-03-20T15:29:28;29.20;;;3.92;;
58697;SDS011;44475;53.206;-6.106;2023-03-20T15:31:56;34.40;;;4.07;;
58697;SDS011;44475;53.206;-6.106;2023-03-20T15:34:30;28.70;;;3.90;;
58697;SDS011;44475;53.206;-6.106;2023-03-20T15:36:58;26.50;;;3.75;;
58697;SDS011;44475;53.206;-6.106;2023-03-20T15:39:29;26.48;;;3.05;;
58697;SDS011;44475;53.206;-6.106;2023-03-20T15:42:18;27.02;;;3.58;;
58697;SDS011;44475;53.206;-6.106;2023-03-20T15:44:47;21.70;;;3.13;;
58697;SDS011;44475;53.206;-6.106;2023-03-20T15:47:20;22.67;;;3.78;;
58697;SDS011;44475;53.206;-6.106;2023-03-20T15:55:17;32.92;;;3.65;;
58697;SDS011;44475;53.206;-6.106;2023-03-20T15:57:47;33.17;;;3.95;;
58697;SDS011;44475;53.206;-6.106;2023-03-20T16:00:19;31.23;;;4.85;;
58697;SDS011;44475;53.206;-6.106;2023-03-20T16:03:05;32.55;;;4.22;;
58697;SDS011;44475;53.206;-6.106;2023-03-20T16:05:35;29.75;;;3.63;;
58697;SDS011;44475;53.206;-6.106;2023-03-20T16:08:12;35.40;;;3.45;;
58697;SDS011;44475;53.206;-6.106;2023-03-20T16:10:40;27.38;;;3.80;;
58697;SDS011;44475;53.206;-6.106;2023-03-20T16:13:11;23.73;;;3.38;;
58697;SDS011;44475;53.206;-6.106;2023-03-20T16:15:42;26.83;;;3.22;;
58697;SDS011;44475;53.206;-6.106;2023-03-20T16:18:10;20.55;;;3.88;;
58697;SDS011;44475;53.206;-6.106;2023-03-20T16:20:43;24.15;;;3.30;;
58697;SDS011;44475;53.206;-6.106;2023-03-20T16:23:18;25.35;;;3.25;;
58697;SDS011;44475;53.206;-6.106;2023-03-20T16:26:19;28.63;;;3.47;;
58697;SDS011;44475;53.206;-6.106;2023-03-20T16:28:54;44.88;;;4.20;;
58697;SDS011;44475;53.206;-6.106;2023-03-20T16:31:30;35.95;;;3.92;;
58697;SDS011;44475;53.206;-6.106;2023-03-20T16:33:59;38.10;;;4.57;;
58697;SDS011;44475;53.206;-6.106;2023-03-20T16:36:31;35.42;;;4.00;;
58697;SDS011;44475;53.206;-6.106;2023-03-20T16:39:07;46.10;;;4.60;;
58697;SDS011;44475;53.206;-6.106;2023-03-20T16:41:40;39.47;;;4.32;;
58697;SDS011;44475;53.206;-6.106;2023-03-20T16:44:11;48.40;;;4.50;;
58697;SDS011;44475;53.206;-6.106;2023-03-20T16:46:58;43.38;;;4.30;;
58697;SDS011;44475;53.206;-6.106;2023-03-20T16:51:56;43.60;;;5.10;;
58697;SDS011;44475;53.206;-6.106;2023-03-20T16:54:25;45.03;;;4.40;;
58697;SDS011;44475;53.206;-6.106;2023-03-20T16:57:01;45.00;;;4.85;;
58697;SDS011;44475;53.206;-6.106;2023-03-20T16:59:32;39.38;;;4.38;;
58697;SDS011;44475;53.206;-6.106;2023-03-20T17:02:02;53.47;;;4.35;;
58697;SDS011;44475;53.206;-6.106;2023-03-20T17:04:39;45.63;;;4.55;;
58697;SDS011;44475;53.206;-6.106;2023-03-20T17:09:54;35.90;;;4.30;;
58697;SDS011;44475;53.206;-6.106;2023-03-20T17:12:36;53.40;;;4.45;;
58697;SDS011;44475;53.206;-6.106;2023-03-20T17:15:06;54.38;;;5.80;;
58697;SDS011;44475;53.206;-6.106;2023-03-20T17:17:32;83.20;;;5.93;;
58697;SDS011;44475;53.206;-6.106;2023-03-20T17:19:59;97.18;;;6.53;;
58697;SDS011;44475;53.206;-6.106;2023-03-20T17:22:25;102.80;;;7.47;;
58697;SDS011;44475;53.206;-6.106;2023-03-20T17:24:57;78.03;;;6.32;;
58697;SDS011;44475;53.206;-6.106;2023-03-20T17:27:24;85.82;;;7.50;;
58697;SDS011;44475;53.206;-6.106;2023-03-20T17:29:51;70.97;;;6.05;;
58697;SDS011;44475;53.206;-6.106;2023-03-20T17:32:20;69.50;;;6.45;;
58697;SDS011;44475;53.206;-6.106;2023-03-20T17:34:50;66.13;;;5.93;;
58697;SDS011;44475;53.206;-6.106;2023-03-20T17:37:18;62.17;;;6.25;;
58697;SDS011;44475;53.206;-6.106;2023-03-20T17:39:54;61.65;;;5.38;;
58697;SDS011;44475;53.206;-6.106;2023-03-20T17:42:22;42.17;;;4.97;;
58697;SDS011;44475;53.206;-6.106;2023-03-20T17:44:51;50.08;;;5.28;;
58697;SDS011;44475;53.206;-6.106;2023-03-20T17:47:18;47.50;;;5.32;;
58697;SDS011;44475;53.206;-6.106;2023-03-20T17:49:47;45.95;;;5.28;;
58697;SDS011;44475;53.206;-6.106;2023-03-20T17:52:34;46.67;;;5.05;;
58697;SDS011;44475;53.206;-6.106;2023-03-20T17:55:00;41.35;;;4.35;;
58697;SDS011;44475;53.206;-6.106;2023-03-20T17:57:30;38.00;;;4.55;;
58697;SDS011;44475;53.206;-6.106;2023-03-20T18:00:02;40.65;;;5.30;;
58697;SDS011;44475;53.206;-6.106;2023-03-20T18:02:37;32.22;;;4.43;;
58697;SDS011;44475;53.206;-6.106;2023-03-20T18:05:03;35.63;;;5.35;;
58697;SDS011;44475;53.206;-6.106;2023-03-20T18:07:32;36.55;;;4.72;;
58697;SDS011;44475;53.206;-6.106;2023-03-20T18:09:59;31.33;;;4.30;;
58697;SDS011;44475;53.206;-6.106;2023-03-20T18:12:25;30.40;;;4.13;;
58697;SDS011;44475;53.206;-6.106;2023-03-20T18:14:51;27.77;;;3.92;;
58697;SDS011;44475;53.206;-6.106;2023-03-20T18:17:18;25.60;;;4.15;;
58697;SDS011;44475;53.206;-6.106;2023-03-20T18:19:44;27.30;;;3.83;;
58697;SDS011;44475;53.206;-6.106;2023-03-20T18:22:10;22.42;;;3.60;;
58697;SDS011;44475;53.206;-6.106;2023-03-20T18:24:37;19.42;;;3.55;;
58697;SDS011;44475;53.206;-6.106;2023-03-20T18:27:06;16.85;;;3.40;;
58697;SDS011;44475;53.206;-6.106;2023-03-20T18:29:34;19.80;;;3.53;;
58697;SDS011;44475;53.206;-6.106;2023-03-20T18:32:01;16.13;;;3.40;;
58697;SDS011;44475;53.206;-6.106;2023-03-20T18:34:27;23.52;;;3.72;;
58697;SDS011;44475;53.206;-6.106;2023-03-20T18:36:54;20.38;;;3.50;;
58697;SDS011;44475;53.206;-6.106;2023-03-20T18:39:21;20.20;;;4.22;;